createdAt,value
2023-01-19T02:00:48.694Z,35.28
2023-01-19T02:03:18.484Z,39.63
2023-01-19T02:05:53.735Z,34.05
2023-01-19T02:09:16.838Z,35.67
2023-01-19T02:12:03.199Z,32.53
2023-01-19T02:14:31.593Z,36.63
2023-01-19T02:16:59.570Z,34.72
2023-01-19T02:19:34.148Z,40.95
2023-01-19T02:22:24.768Z,30.30
2023-01-19T02:24:53.365Z,39.60
2023-01-19T02:27:23.486Z,38.33
2023-01-19T02:29:53.863Z,33.90
2023-01-19T02:32:22.659Z,34.83
2023-01-19T02:34:50.783Z,38.35
2023-01-19T02:37:18.834Z,34.95
2023-01-19T02:39:57.119Z,40.90
2023-01-19T02:42:25.380Z,38.75
2023-01-19T02:44:54.759Z,37.03
2023-01-19T02:47:23.802Z,36.60
2023-01-19T02:49:59.421Z,41.95
2023-01-19T02:52:27.681Z,36.00
2023-01-19T02:55:09.028Z,42.28
2023-01-19T02:57:52.648Z,46.67
2023-01-19T03:00:29.889Z,37.90
2023-01-19T03:03:33.988Z,35.40
2023-01-19T03:06:09.279Z,40.40
2023-01-19T03:08:54.596Z,38.03
2023-01-19T03:11:22.883Z,42.00
2023-01-19T03:14:01.844Z,42.30
2023-01-19T03:16:41.092Z,39.50
2023-01-19T03:19:37.353Z,44.67
2023-01-19T03:22:11.277Z,36.70
2023-01-19T03:24:43.663Z,36.40
2023-01-19T03:27:16.873Z,39.72
2023-01-19T03:29:48.723Z,35.08
2023-01-19T03:32:17.639Z,38.67
2023-01-19T03:34:45.641Z,39.63
2023-01-19T03:37:14.601Z,38.50
2023-01-19T03:39:42.939Z,36.28
2023-01-19T03:42:13.801Z,42.63
2023-01-19T03:44:42.960Z,43.55
2023-01-19T03:47:15.366Z,39.75
2023-01-19T03:49:45.026Z,36.53
2023-01-19T03:52:13.113Z,44.92
2023-01-19T03:54:42.044Z,40.53
2023-01-19T03:57:10.239Z,40.38
2023-01-19T03:59:38.189Z,37.05
2023-01-19T04:02:06.756Z,39.50
2023-01-19T04:04:36.310Z,36.50
2023-01-19T04:07:04.608Z,40.88
2023-01-19T04:09:32.940Z,37.55
2023-01-19T04:12:02.075Z,38.17
2023-01-19T04:14:30.349Z,41.10
2023-01-19T04:16:58.604Z,41.00
2023-01-19T04:19:26.540Z,42.40
2023-01-19T04:21:57.827Z,39.28
2023-01-19T04:24:26.162Z,39.60
2023-01-19T04:26:55.122Z,34.63
2023-01-19T04:29:24.530Z,38.40
2023-01-19T04:31:52.739Z,33.67
2023-01-19T04:34:20.772Z,41.97
2023-01-19T04:36:52.111Z,33.15
2023-01-19T04:39:20.578Z,31.92
2023-01-19T04:41:48.718Z,40.15
2023-01-19T04:44:16.636Z,36.13
2023-01-19T04:46:48.189Z,35.88
2023-01-19T04:49:16.253Z,37.88
2023-01-19T04:51:44.695Z,37.38
2023-01-19T04:54:12.619Z,37.22
2023-01-19T04:56:41.207Z,38.13
2023-01-19T04:59:10.930Z,39.28
2023-01-19T05:01:39.079Z,35.80
2023-01-19T05:04:07.941Z,33.28
2023-01-19T05:06:39.328Z,32.65
2023-01-19T05:09:09.258Z,41.72
2023-01-19T05:11:37.689Z,33.45
2023-01-19T05:14:05.892Z,42.45
2023-01-19T05:16:34.784Z,32.85
2023-01-19T05:19:02.788Z,32.90
2023-01-19T05:21:31.070Z,31.10
2023-01-19T05:23:59.188Z,32.97
2023-01-19T05:26:29.874Z,29.13
2023-01-19T05:28:57.915Z,32.35
2023-01-19T05:31:26.307Z,33.05
2023-01-19T05:33:54.297Z,29.45
2023-01-19T05:36:22.909Z,32.90
2023-01-19T05:38:50.800Z,36.75
2023-01-19T05:41:18.870Z,38.92
2023-01-19T10:16:45.231Z,20.05
2023-01-19T10:19:34.382Z,25.95
2023-01-19T10:22:23.140Z,22.98
2023-01-19T10:24:56.703Z,23.98
2023-01-19T10:27:34.658Z,18.52
2023-01-19T10:30:02.640Z,16.27
2023-01-19T10:32:35.984Z,24.02
2023-01-19T10:35:25.621Z,19.75
2023-01-19T10:37:58.351Z,19.38
2023-01-19T10:40:43.561Z,17.23
2023-01-19T10:43:34.775Z,23.02
2023-01-19T10:46:06.205Z,20.10
2023-01-19T10:48:40.817Z,20.58
2023-01-19T10:51:09.788Z,16.52
2023-01-19T10:53:37.850Z,16.77
2023-01-19T10:56:28.172Z,18.58
2023-01-19T10:59:03.343Z,18.38
2023-01-19T11:01:36.036Z,15.93
2023-01-19T11:04:29.026Z,15.20
2023-01-19T11:07:23.379Z,13.02
2023-01-19T11:10:11.748Z,13.20
2023-01-19T11:13:01.567Z,13.98
2023-01-19T11:15:50.555Z,13.95
2023-01-19T11:18:53.665Z,15.32
2023-01-19T11:21:26.143Z,13.35
2023-01-19T11:23:55.604Z,16.10
2023-01-19T11:26:44.519Z,12.57
2023-01-19T11:29:17.707Z,19.17
2023-01-19T11:31:46.455Z,16.30
2023-01-19T11:34:38.871Z,15.45
2023-01-19T11:37:27.400Z,14.55
2023-01-19T11:39:59.429Z,15.75
2023-01-19T11:42:28.407Z,14.02
2023-01-19T11:45:17.331Z,11.65
2023-01-19T11:47:49.416Z,11.75
2023-01-19T11:50:35.414Z,11.95
2023-01-19T11:53:17.824Z,11.67
2023-01-19T11:56:05.052Z,13.50
2023-01-19T11:58:43.439Z,11.63
2023-01-19T12:01:25.003Z,15.80
2023-01-19T12:04:11.359Z,16.48
2023-01-19T12:06:50.757Z,17.02
2023-01-19T12:09:19.765Z,14.65
2023-01-19T12:11:57.680Z,12.80
2023-01-19T12:14:32.227Z,11.93
2023-01-19T12:17:02.916Z,14.38
2023-01-19T12:19:55.253Z,18.38
2023-01-19T12:22:23.984Z,20.45
2023-01-19T12:25:04.235Z,18.85
2023-01-19T12:27:43.513Z,16.52
2023-01-19T12:30:44.175Z,17.70
2023-01-19T12:33:41.778Z,15.65
2023-01-19T12:36:12.788Z,13.13
2023-01-19T12:38:53.837Z,17.50
2023-01-19T12:41:24.924Z,20.38
2023-01-19T12:44:25.355Z,19.33
2023-01-19T12:46:56.178Z,13.65
2023-01-19T12:49:39.983Z,14.02
2023-01-19T12:52:51.640Z,17.17
2023-01-19T12:55:47.674Z,19.13
2023-01-19T12:58:24.383Z,14.75
2023-01-19T13:01:13.747Z,17.48
2023-01-19T13:03:47.172Z,20.75
2023-01-19T13:06:17.022Z,20.52
2023-01-19T13:09:00.620Z,20.45
2023-01-19T13:11:34.052Z,18.55
2023-01-19T13:14:02.960Z,19.35
2023-01-19T13:16:32.673Z,19.52
2023-01-19T13:23:26.480Z,19.85
2023-01-19T13:26:06.916Z,18.55
2023-01-19T13:28:42.327Z,16.70
2023-01-19T13:31:14.104Z,12.77
2023-01-19T13:33:56.573Z,17.13
2023-01-19T13:36:35.386Z,21.27
2023-01-19T13:39:05.630Z,17.48
2023-01-19T13:41:38.871Z,26.27
2023-01-19T13:44:21.122Z,21.08
2023-01-19T13:46:49.246Z,19.92
2023-01-19T13:49:25.570Z,20.63
2023-01-19T13:52:05.802Z,18.45
2023-01-19T13:54:34.979Z,18.13
2023-01-19T13:57:25.428Z,19.80
2023-01-19T14:00:15.840Z,23.48
2023-01-19T14:03:01.281Z,16.98
2023-01-19T14:05:39.131Z,23.38
2023-01-19T14:08:11.506Z,17.73
2023-01-19T14:10:56.511Z,15.82
2023-01-19T14:13:29.863Z,18.73
2023-01-19T14:16:00.132Z,23.02
2023-01-19T14:18:32.732Z,22.13
2023-01-19T14:21:02.382Z,20.27
2023-01-19T14:23:50.716Z,21.63
2023-01-19T14:26:38.063Z,21.35
2023-01-19T14:29:34.343Z,19.42
2023-01-19T14:32:13.376Z,20.83
2023-01-19T14:34:49.376Z,24.77
2023-01-19T14:37:21.811Z,22.08
2023-01-19T14:40:13.487Z,24.00
2023-01-19T14:42:48.449Z,24.65
2023-01-19T14:45:21.081Z,19.67
2023-01-19T14:47:58.686Z,22.42
2023-01-19T14:50:51.037Z,20.27
2023-01-19T14:53:35.003Z,22.13
2023-01-19T14:56:05.811Z,22.92
2023-01-19T14:58:37.096Z,21.65
2023-01-19T15:01:40.137Z,29.73
2023-01-19T15:04:12.176Z,20.73
2023-01-19T15:06:45.899Z,22.08
2023-01-19T15:09:33.842Z,22.63
2023-01-19T15:12:10.672Z,22.65
2023-01-19T15:14:39.000Z,28.13
2023-01-19T15:17:06.944Z,22.65
2023-01-19T15:19:35.168Z,22.08
2023-01-19T15:22:32.593Z,23.13
2023-01-19T15:25:00.525Z,23.48
2023-01-19T15:27:32.235Z,24.88
2023-01-19T15:30:01.551Z,24.33
2023-01-19T15:32:44.075Z,29.55
2023-01-19T15:35:17.336Z,25.70
2023-01-19T15:37:45.976Z,22.73
2023-01-19T15:40:15.421Z,24.52
2023-01-19T15:42:44.316Z,31.33
2023-01-19T15:45:32.337Z,23.77
2023-01-19T15:48:05.348Z,27.05
2023-01-19T15:50:34.206Z,28.40
2023-01-19T15:53:02.213Z,27.10
2023-01-19T15:55:31.013Z,26.55
2023-01-19T15:58:01.745Z,28.42
2023-01-19T16:00:31.173Z,24.60
2023-01-19T16:02:59.311Z,29.50
2023-01-19T16:05:42.062Z,27.77
2023-01-19T16:08:11.907Z,27.40
2023-01-19T16:10:40.752Z,30.17
2023-01-19T16:13:09.778Z,31.15
2023-01-19T16:15:38.420Z,29.20
2023-01-19T16:18:06.389Z,27.98
2023-01-19T16:20:34.322Z,31.65
2023-01-19T16:23:14.612Z,29.33
2023-01-19T16:25:43.598Z,28.80
2023-01-19T16:28:45.783Z,32.40
2023-01-19T16:31:15.212Z,33.55
2023-01-19T16:33:44.686Z,33.72
2023-01-19T16:36:24.887Z,36.03
2023-01-19T16:39:03.704Z,31.75
2023-01-19T16:42:04.825Z,31.27
2023-01-19T16:44:34.209Z,31.02
2023-01-19T16:47:08.201Z,31.33
2023-01-19T16:49:48.708Z,29.75
2023-01-19T16:52:24.330Z,30.75
2023-01-19T16:54:54.896Z,26.02
2023-01-19T16:57:31.808Z,27.92
2023-01-19T17:00:01.374Z,32.97
2023-01-19T17:02:30.353Z,28.98
2023-01-19T17:05:00.360Z,32.58
2023-01-19T17:07:35.376Z,28.77
2023-01-19T17:10:10.197Z,32.42
2023-01-19T17:12:47.303Z,32.33
2023-01-19T17:15:15.637Z,30.52
2023-01-19T17:17:47.330Z,33.53
2023-01-19T17:20:15.883Z,30.73
2023-01-19T17:22:47.254Z,34.83
2023-01-19T17:25:21.292Z,38.13
2023-01-19T17:28:23.317Z,34.92
2023-01-19T17:30:52.128Z,33.88
2023-01-19T17:33:20.908Z,31.17
2023-01-19T17:35:49.114Z,31.45
2023-01-19T17:38:17.261Z,34.50
2023-01-19T17:41:08.452Z,35.17
2023-01-19T17:43:36.745Z,30.20
2023-01-19T17:46:09.774Z,37.88
2023-01-19T17:48:48.625Z,36.97
2023-01-19T17:51:28.672Z,35.20
2023-01-19T17:57:45.862Z,34.40
2023-01-19T18:00:56.381Z,34.17
2023-01-19T18:03:51.988Z,30.52
2023-01-19T18:11:03.564Z,33.67
2023-01-19T18:14:11.159Z,37.40
2023-01-19T18:16:43.455Z,32.42
2023-01-19T18:19:17.721Z,43.15
2023-01-19T18:21:52.464Z,28.83
2023-01-19T18:24:26.356Z,33.20
2023-01-19T18:26:57.494Z,36.40
2023-01-19T18:29:47.259Z,35.92
2023-01-19T18:32:18.288Z,39.42
2023-01-19T18:35:10.392Z,37.17
2023-01-19T18:37:42.606Z,36.83
2023-01-19T18:40:13.774Z,39.60
2023-01-19T18:42:50.656Z,38.03
2023-01-19T18:45:20.831Z,32.00
2023-01-19T18:47:51.701Z,36.13
2023-01-19T18:50:19.805Z,35.78
2023-01-19T18:52:53.773Z,36.35
2023-01-19T18:55:24.245Z,38.08
2023-01-19T18:57:54.946Z,33.83
2023-01-19T19:01:19.458Z,37.22
2023-01-19T19:03:48.042Z,44.83
2023-01-19T19:06:17.327Z,39.38
2023-01-19T19:08:49.036Z,38.88
2023-01-19T19:11:24.669Z,33.88
2023-01-19T19:14:00.112Z,39.97
2023-01-19T19:16:58.899Z,35.50
2023-01-19T19:19:27.780Z,32.88
2023-01-19T19:22:28.423Z,37.63
2023-01-19T19:24:56.344Z,31.85
2023-01-19T19:27:45.018Z,37.15
2023-01-19T19:30:22.817Z,40.75
2023-01-19T19:33:09.007Z,36.50
2023-01-19T19:36:03.286Z,35.47
2023-01-19T19:38:33.596Z,31.08
2023-01-19T19:41:08.447Z,34.22
2023-01-19T19:43:36.603Z,37.72
2023-01-19T19:46:08.546Z,29.92
2023-01-19T19:48:39.009Z,32.83
2023-01-19T19:51:19.265Z,36.92
2023-01-19T19:53:51.075Z,35.28
2023-01-19T19:56:21.518Z,35.10
2023-01-19T19:58:58.026Z,34.42
2023-01-19T20:01:32.639Z,41.60
2023-01-19T20:04:15.551Z,35.70
2023-01-19T20:06:44.927Z,36.90
2023-01-19T20:09:14.408Z,43.88
2023-01-19T20:11:46.820Z,37.30
2023-01-19T20:14:16.401Z,35.50
2023-01-19T20:17:08.380Z,33.10
2023-01-19T20:19:47.774Z,39.97
2023-01-19T20:22:17.814Z,34.75
2023-01-19T20:24:49.048Z,40.95
2023-01-19T20:27:20.870Z,36.35
2023-01-19T20:29:58.605Z,42.47
2023-01-19T20:32:28.377Z,36.60
2023-01-19T20:34:56.336Z,39.90
2023-01-19T20:37:24.259Z,44.85
2023-01-19T20:39:58.862Z,42.17
2023-01-19T20:42:33.473Z,37.85
2023-01-19T20:45:01.547Z,34.90
2023-01-19T20:47:29.899Z,38.53
2023-01-19T20:49:58.554Z,42.10
2023-01-19T20:52:29.455Z,41.38
2023-01-19T20:54:57.320Z,44.08
2023-01-19T20:57:34.721Z,38.33
2023-01-19T21:00:04.658Z,40.92
2023-01-19T21:02:35.069Z,36.97
2023-01-19T21:05:03.487Z,41.08
2023-01-19T21:07:40.499Z,42.55
2023-01-19T21:10:40.229Z,43.05
2023-01-19T21:13:09.499Z,34.50
2023-01-19T21:15:37.342Z,40.10
2023-01-19T21:19:15.219Z,40.85
2023-01-19T21:22:21.058Z,39.78
2023-01-19T21:24:59.460Z,41.33
2023-01-19T21:27:27.659Z,41.95
2023-01-19T21:29:59.715Z,40.08
2023-01-19T21:32:28.315Z,40.13
2023-01-19T21:34:56.772Z,40.63
2023-01-19T21:37:24.728Z,41.45
2023-01-19T21:39:52.661Z,38.47
2023-01-19T21:42:20.495Z,40.33
2023-01-19T21:44:50.270Z,42.95
2023-01-19T21:47:19.384Z,35.97
2023-01-19T21:49:47.615Z,43.75
2023-01-19T21:52:15.798Z,38.38
2023-01-19T21:54:43.827Z,40.03
2023-01-19T21:57:19.874Z,40.13
2023-01-19T21:59:49.135Z,49.28
2023-01-19T22:02:29.879Z,40.25
2023-01-19T22:05:06.868Z,41.30
2023-01-19T22:07:37.825Z,40.35
2023-01-19T22:10:06.157Z,40.00
2023-01-19T22:12:34.255Z,45.08
2023-01-19T22:15:05.563Z,44.38
2023-01-19T22:17:34.795Z,39.60
2023-01-19T22:20:07.692Z,43.40
2023-01-19T22:22:36.803Z,42.28
2023-01-19T22:25:06.103Z,46.00
2023-01-19T22:27:34.675Z,47.13
2023-01-19T22:30:04.005Z,50.17
2023-01-19T22:32:32.088Z,48.65
2023-01-19T22:34:59.949Z,46.28
2023-01-19T22:37:28.645Z,43.78
2023-01-19T22:39:56.455Z,43.90
2023-01-19T22:42:26.475Z,45.17
2023-01-19T22:44:54.388Z,50.92
2023-01-19T22:47:25.930Z,46.50
2023-01-19T22:49:54.107Z,43.80
2023-01-19T22:52:21.792Z,43.28
2023-01-19T22:54:49.600Z,43.90
2023-01-19T22:57:40.300Z,42.67
2023-01-19T23:00:08.755Z,41.38
2023-01-19T23:02:41.273Z,40.45
2023-01-19T23:05:09.375Z,41.33
2023-01-19T23:07:37.436Z,43.35
2023-01-19T23:10:05.874Z,35.42
2023-01-19T23:12:37.526Z,37.17
2023-01-19T23:15:05.888Z,42.45
2023-01-19T23:17:33.882Z,41.53
2023-01-19T23:20:01.667Z,41.92
2023-01-19T23:22:32.834Z,44.95
2023-01-19T23:25:00.642Z,49.10
2023-01-19T23:27:28.630Z,42.08
2023-01-19T23:29:56.711Z,41.20
2023-01-19T23:32:24.545Z,38.58
2023-01-19T23:34:52.536Z,47.75
2023-01-19T23:37:20.528Z,39.35
2023-01-19T23:39:48.661Z,44.67
2023-01-19T23:42:16.461Z,38.03
2023-01-19T23:44:44.544Z,41.20
2023-01-19T23:47:12.723Z,48.63
2023-01-19T23:49:40.640Z,40.13
2023-01-19T23:52:08.599Z,37.70
2023-01-19T23:54:37.222Z,39.33
2023-01-19T23:57:05.296Z,39.35
2023-01-19T23:59:33.328Z,40.05
